Time;durP1;ratioP1;P1;durP2;ratioP2;P2;SDS_P1;SDS_P2;PMS_P1;PMS_P2;Temp;Humidity;BMP_temperature;BMP_pressure;BME280_temperature;BME280_humidity;BME280_pressure;Samples;Min_cycle;Max_cycle;Signal;HPM_P1;HPM_P2
2023/06/14 00:01:23;;;;;;;3.87;3.20;;;;;;;13.81;71.23;101244.81;5053684;28;20945;-72
2023/06/14 00:03:55;;;;;;;5.83;3.77;;;;;;;13.72;72.00;101236.06;5057850;28;20819;-71
2023/06/14 00:06:25;;;;;;;7.03;3.70;;;;;;;13.69;72.60;101232.94;5050170;28;20980;-71
2023/06/14 00:08:54;;;;;;;3.63;3.10;;;;;;;13.70;72.49;101240.06;5056731;28;20437;-71
2023/06/14 00:11:23;;;;;;;5.63;4.00;;;;;;;13.61;73.31;101246.75;5053668;28;20465;-71
2023/06/14 00:13:52;;;;;;;5.27;4.77;;;;;;;13.70;73.24;101248.22;5050807;28;20419;-71
2023/06/14 00:16:22;;;;;;;4.63;3.43;;;;;;;13.72;73.36;101248.81;5052675;28;20997;-70
2023/06/14 00:18:53;;;;;;;4.93;3.80;;;;;;;13.60;73.69;101253.28;5054455;28;20434;-68
2023/06/14 00:21:23;;;;;;;5.33;4.83;;;;;;;13.62;73.87;101243.00;5060382;28;20789;-70
2023/06/14 00:24:18;;;;;;;5.90;3.60;;;;;;;13.76;72.95;101248.19;5048235;28;20432;-70
2023/06/14 00:26:48;;;;;;;4.10;3.20;;;;;;;13.75;73.21;101242.94;5056436;28;20468;-71
2023/06/14 00:29:17;;;;;;;3.60;3.30;;;;;;;13.64;73.91;101244.47;5056328;28;20427;-72
2023/06/14 00:31:46;;;;;;;3.20;2.60;;;;;;;13.59;74.16;101246.16;5055585;28;20429;-72
2023/06/14 00:34:17;;;;;;;5.30;3.60;;;;;;;13.63;74.03;101252.84;5065763;28;21097;-70
2023/06/14 00:36:46;;;;;;;4.97;3.70;;;;;;;13.57;74.51;101251.78;5056736;28;20456;-72
2023/06/14 00:39:15;;;;;;;4.40;4.00;;;;;;;13.61;74.77;101249.47;5057933;28;20468;-70
2023/06/14 00:41:45;;;;;;;4.67;4.03;;;;;;;13.68;74.79;101247.59;5059062;28;20427;-71
2023/06/14 00:44:17;;;;;;;4.23;3.33;;;;;;;13.66;74.57;101244.25;5063862;28;20419;-72
2023/06/14 00:46:47;;;;;;;4.00;3.60;;;;;;;13.49;75.26;101258.31;5055738;28;20442;-71
2023/06/14 00:49:19;;;;;;;4.13;3.70;;;;;;;13.45;75.70;101253.50;5058520;28;20941;-72
2023/06/14 00:51:48;;;;;;;3.60;3.30;;;;;;;13.41;76.15;101258.50;5056484;28;20427;-71
2023/06/14 00:54:17;;;;;;;3.47;3.17;;;;;;;13.62;75.24;101248.44;5062299;28;20510;-72
2023/06/14 00:56:46;;;;;;;3.80;3.23;;;;;;;13.54;75.57;101259.56;5067268;28;20421;-72
2023/06/14 00:59:16;;;;;;;4.30;3.90;;;;;;;13.41;76.39;101253.06;5060557;28;21027;-72
2023/06/14 01:01:48;;;;;;;5.67;3.57;;;;;;;13.42;76.57;101254.75;5057581;28;20429;-71
2023/06/14 01:04:19;;;;;;;4.90;3.37;;;;;;;13.27;77.10;101251.44;5050370;28;20430;-72
2023/06/14 01:07:03;;;;;;;5.77;4.80;;;;;;;13.30;77.01;101244.75;5056615;28;20449;-72
2023/06/14 01:09:40;;;;;;;5.00;4.43;;;;;;;13.11;78.30;101251.88;5057013;28;20422;-71
2023/06/14 01:12:16;;;;;;;10.30;3.37;;;;;;;13.14;78.34;101247.91;5054078;28;20509;-72
2023/06/14 01:14:48;;;;;;;6.40;4.90;;;;;;;13.36;77.51;101255.59;5058081;28;20474;-71
2023/06/14 01:17:21;;;;;;;4.07;3.77;;;;;;;13.13;78.67;101252.50;5058606;28;20450;-71
2023/06/14 01:19:57;;;;;;;5.17;4.10;;;;;;;13.12;79.16;101252.72;5062819;28;20466;-71
2023/06/14 01:22:27;;;;;;;4.90;3.43;;;;;;;13.12;78.90;101253.53;5053798;28;20937;-72
2023/06/14 01:24:58;;;;;;;4.40;4.00;;;;;;;13.10;79.23;101255.59;5055035;28;20440;-71
2023/06/14 01:27:29;;;;;;;5.90;5.30;;;;;;;13.15;79.10;101253.13;5058281;28;20471;-72
2023/06/14 01:29:59;;;;;;;4.57;4.17;;;;;;;13.06;79.51;101249.78;5053309;28;20449;-71
2023/06/14 01:32:30;;;;;;;5.33;4.43;;;;;;;12.98;80.63;101249.13;5059666;28;20430;-72
2023/06/14 01:35:03;;;;;;;7.70;5.47;;;;;;;13.05;79.64;101241.81;5058288;28;20443;-71
2023/06/14 01:37:33;;;;;;;6.03;4.90;;;;;;;13.02;79.90;101239.53;5059646;28;20477;-71
2023/06/14 01:40:06;;;;;;;5.33;4.30;;;;;;;12.88;80.77;101245.97;5054279;28;20825;-71
2023/06/14 01:42:38;;;;;;;9.80;6.03;;;;;;;12.86;80.95;101242.66;5062899;28;20427;-72
2023/06/14 01:45:10;;;;;;;5.33;4.10;;;;;;;12.90;81.34;101241.19;5054333;28;20837;-73
2023/06/14 01:47:39;;;;;;;5.27;4.10;;;;;;;12.82;81.41;101241.41;5057056;28;20462;-73
2023/06/14 01:50:09;;;;;;;7.40;4.53;;;;;;;12.77;81.89;101239.31;5059091;28;20409;-73
2023/06/14 01:52:38;;;;;;;4.33;3.93;;;;;;;12.78;81.83;101251.03;5060129;28;20521;-72
2023/06/14 01:55:10;;;;;;;4.73;3.93;;;;;;;12.64;82.74;101251.00;5057657;28;20427;-71
2023/06/14 01:57:40;;;;;;;5.30;4.60;;;;;;;12.68;83.06;101251.44;5069514;28;20494;-71
2023/06/14 02:00:12;;;;;;;5.30;4.30;;;;;;;12.74;82.58;101247.88;5062196;28;20438;-72
2023/06/14 02:02:42;;;;;;;5.30;3.80;;;;;;;12.71;82.97;101244.72;5069689;28;20477;-70
2023/06/14 02:05:11;;;;;;;5.30;4.80;;;;;;;12.66;83.28;101248.06;5071047;28;20412;-71
2023/06/14 02:07:43;;;;;;;7.30;4.80;;;;;;;12.89;82.07;101255.81;5063909;28;20462;-70
2023/06/14 02:10:14;;;;;;;5.67;5.17;;;;;;;12.81;82.59;101256.88;5061398;28;20439;-72
2023/06/14 02:12:43;;;;;;;6.60;4.93;;;;;;;12.90;82.34;101271.06;5057447;28;20953;-71
2023/06/14 02:15:16;;;;;;;7.03;5.17;;;;;;;12.76;83.05;101266.69;5060762;28;20441;-71
2023/06/14 02:17:46;;;;;;;8.00;4.90;;;;;;;12.71;83.31;101269.19;5060110;28;20548;-71
2023/06/14 02:20:18;;;;;;;5.27;4.77;;;;;;;12.87;82.52;101260.63;5053252;28;20395;-71
2023/06/14 02:22:47;;;;;;;4.73;4.23;;;;;;;12.84;82.55;101270.03;5054229;28;20900;-71
2023/06/14 02:25:18;;;;;;;5.27;4.77;;;;;;;12.71;83.60;101266.47;5065207;28;20815;-70
2023/06/14 02:27:47;;;;;;;4.90;4.23;;;;;;;12.74;83.84;101263.31;5062097;28;20450;-70
2023/06/14 02:30:16;;;;;;;7.33;5.57;;;;;;;12.77;83.34;101265.63;5060796;28;20538;-70
2023/06/14 02:32:48;;;;;;;7.37;5.67;;;;;;;12.63;84.04;101259.34;5062497;28;20434;-71
2023/06/14 02:35:17;;;;;;;6.43;5.33;;;;;;;12.45;85.11;101254.50;5059466;28;20470;-73
2023/06/14 02:37:46;;;;;;;6.37;5.00;;;;;;;12.48;85.20;101250.56;5065312;28;20437;-72
2023/06/14 02:40:17;;;;;;;7.30;5.43;;;;;;;12.41;85.86;101252.41;5054194;28;20433;-70
2023/06/14 02:42:46;;;;;;;7.23;6.60;;;;;;;12.59;85.61;101258.91;5054100;28;20428;-72
2023/06/14 02:45:16;;;;;;;5.30;4.80;;;;;;;12.49;85.73;101263.91;5057665;28;20447;-72
2023/06/14 02:47:45;;;;;;;7.00;5.57;;;;;;;12.45;86.34;101262.66;5063132;28;20467;-72
2023/06/14 02:50:15;;;;;;;5.30;4.80;;;;;;;12.49;86.23;101265.81;5053868;28;20862;-72
2023/06/14 02:52:45;;;;;;;11.70;7.20;;;;;;;12.69;85.49;101265.81;5056938;28;20867;-71
2023/06/14 02:55:14;;;;;;;6.90;5.03;;;;;;;12.50;85.86;101264.75;5053214;28;21000;-71
2023/06/14 02:57:47;;;;;;;8.03;6.50;;;;;;;12.39;86.71;101263.47;5054866;28;20853;-70
2023/06/14 03:00:17;;;;;;;6.63;5.50;;;;;;;12.54;86.78;101266.84;5051968;28;20541;-71
2023/06/14 03:02:48;;;;;;;9.90;6.40;;;;;;;12.55;85.83;101262.25;5049849;28;20906;-71
2023/06/14 03:05:21;;;;;;;8.50;6.40;;;;;;;12.69;85.48;101263.09;5052992;28;20435;-71
2023/06/14 03:07:50;;;;;;;6.03;5.23;;;;;;;12.49;86.32;101255.75;5052726;28;21026;-71
2023/06/14 03:10:20;;;;;;;9.37;6.10;;;;;;;12.52;86.31;101255.38;5054535;28;20453;-71
2023/06/14 03:12:53;;;;;;;5.27;4.67;;;;;;;12.41;86.86;101246.97;5060877;28;20512;-70
2023/06/14 03:15:24;;;;;;;9.50;6.07;;;;;;;12.37;87.44;101251.16;5057982;28;20450;-69
2023/06/14 03:17:54;;;;;;;5.60;5.03;;;;;;;12.61;86.41;101251.41;5052957;28;20530;-70
2023/06/14 03:20:23;;;;;;;7.67;6.10;;;;;;;12.74;85.70;101257.88;5051273;28;20930;-71
2023/06/14 03:22:55;;;;;;;8.07;6.80;;;;;;;12.60;86.02;101255.16;5051261;28;20443;-72
2023/06/14 03:25:25;;;;;;;7.73;6.40;;;;;;;12.71;85.71;101266.47;5051523;28;20435;-71
2023/06/14 03:27:56;;;;;;;9.33;6.83;;;;;;;12.66;85.97;101263.53;5053997;28;20825;-71
2023/06/14 03:30:25;;;;;;;8.53;6.57;;;;;;;12.84;85.51;101271.91;5077283;28;20817;-71
2023/06/14 03:32:55;;;;;;;8.30;6.57;;;;;;;12.95;84.55;101263.13;5054460;28;20470;-72
2023/06/14 03:35:27;;;;;;;6.43;5.83;;;;;;;13.14;83.32;101266.91;5050896;28;20422;-72
2023/06/14 03:37:56;;;;;;;9.43;5.40;;;;;;;13.10;83.55;101265.63;5050714;28;20474;-70
2023/06/14 03:40:27;;;;;;;9.07;7.40;;;;;;;13.14;82.97;101266.91;5056807;28;20789;-72
2023/06/14 03:43:07;;;;;;;6.67;6.00;;;;;;;13.12;83.32;101269.84;5051538;28;20438;-71
2023/06/14 03:45:35;;;;;;;7.00;6.40;;;;;;;13.14;83.08;101270.47;5056312;28;20443;-72
2023/06/14 03:48:08;;;;;;;7.93;6.73;;;;;;;13.90;81.40;101273.44;5051775;28;20881;-72
2023/06/14 03:50:39;;;;;;;8.73;6.30;;;;;;;15.50;72.79;101276.56;5057141;28;20435;-71
2023/06/14 03:53:08;;;;;;;7.10;6.40;;;;;;;16.90;67.05;101278.19;5055027;28;20526;-71
2023/06/14 03:55:41;;;;;;;9.40;6.07;;;;;;;17.84;62.38;101286.44;5052123;28;20922;-70
2023/06/14 03:58:14;;;;;;;7.47;5.50;;;;;;;17.56;61.99;101281.69;5051007;28;20428;-71
2023/06/14 04:00:45;;;;;;;8.00;5.13;;;;;;;17.59;62.77;101287.53;5054052;28;20433;-68
2023/06/14 04:03:15;;;;;;;7.77;6.43;;;;;;;18.13;60.53;101283.53;5056777;28;20782;-70
2023/06/14 04:05:49;;;;;;;7.77;7.07;;;;;;;18.95;57.41;101291.41;5052946;28;20839;-70
2023/06/14 04:08:22;;;;;;;8.63;7.83;;;;;;;19.15;57.31;101297.25;5057822;28;20482;-70
2023/06/14 04:10:52;;;;;;;6.50;5.77;;;;;;;18.97;56.89;101302.97;5052400;28;20915;-71
2023/06/14 04:13:23;;;;;;;7.30;6.60;;;;;;;19.08;56.31;101302.88;5060407;28;20916;-70
2023/06/14 04:15:52;;;;;;;7.00;6.33;;;;;;;19.12;56.03;101297.75;5051767;28;20550;-69
2023/06/14 04:18:26;;;;;;;6.90;6.30;;;;;;;19.38;55.15;101305.28;5066074;28;20458;-71
2023/06/14 04:20:57;;;;;;;8.07;5.87;;;;;;;19.97;53.60;101302.91;5050949;28;20422;-70
2023/06/14 04:23:28;;;;;;;7.93;6.23;;;;;;;20.32;52.54;101308.88;5050781;28;20492;-71
2023/06/14 04:26:01;;;;;;;7.63;6.87;;;;;;;20.41;52.21;101306.50;5050834;28;20442;-71
2023/06/14 04:28:32;;;;;;;8.97;6.20;;;;;;;20.53;51.60;101304.44;5064482;28;20515;-72
2023/06/14 04:31:04;;;;;;;7.13;6.10;;;;;;;20.51;51.66;101311.28;5058077;28;20453;-72
2023/06/14 04:33:42;;;;;;;6.97;6.37;;;;;;;20.46;52.04;101311.22;5065278;28;20424;-71
2023/06/14 04:36:17;;;;;;;10.50;7.30;;;;;;;21.06;50.29;101306.34;5063849;28;20479;-71
2023/06/14 04:38:49;;;;;;;10.10;6.60;;;;;;;21.20;49.62;101307.59;5055633;28;20435;-72
2023/06/14 04:41:19;;;;;;;7.07;6.20;;;;;;;20.69;50.90;101299.94;5054183;28;20430;-71
2023/06/14 04:43:49;;;;;;;10.23;6.20;;;;;;;21.46;49.41;101302.28;5063074;28;20930;-71
2023/06/14 04:46:20;;;;;;;7.47;6.70;;;;;;;22.10;47.97;101298.28;5050242;28;20467;-72
2023/06/14 04:48:50;;;;;;;7.13;6.50;;;;;;;21.74;47.98;101299.16;5052988;28;20977;-70
2023/06/14 04:51:21;;;;;;;7.60;6.80;;;;;;;21.66;48.67;101299.66;5056988;28;20395;-71
2023/06/14 04:53:50;;;;;;;7.77;7.10;;;;;;;21.82;48.38;101301.44;5056396;28;20407;-71
2023/06/14 04:56:19;;;;;;;6.97;6.27;;;;;;;22.24;47.45;101303.31;5053353;28;20998;-72
2023/06/14 04:58:52;;;;;;;7.60;6.80;;;;;;;21.69;48.33;101312.91;5051476;28;20402;-71
2023/06/14 05:01:23;;;;;;;8.03;7.23;;;;;;;21.94;47.48;101318.59;5048060;28;20429;-71
2023/06/14 05:03:52;;;;;;;7.10;6.40;;;;;;;21.49;48.41;101319.13;5059932;28;20462;-71
2023/06/14 05:06:22;;;;;;;9.23;7.23;;;;;;;21.54;48.68;101315.56;5052674;28;20800;-71
2023/06/14 05:08:51;;;;;;;8.17;7.37;;;;;;;21.44;48.86;101321.00;5060608;28;20529;-71
2023/06/14 05:11:20;;;;;;;8.37;6.80;;;;;;;22.30;47.37;101316.84;5054415;28;20414;-70
2023/06/14 05:13:52;;;;;;;9.33;6.57;;;;;;;21.10;49.30;101315.75;5056029;28;20526;-71
2023/06/14 05:16:23;;;;;;;13.13;6.93;;;;;;;19.70;53.07;101310.22;5059606;28;20486;-70
2023/06/14 05:18:52;;;;;;;8.00;7.17;;;;;;;18.37;57.99;101314.41;5062493;28;20898;-70
2023/06/14 05:21:22;;;;;;;8.57;7.20;;;;;;;17.43;61.25;101310.09;5061455;28;21189;-71
2023/06/14 05:23:51;;;;;;;10.30;8.20;;;;;;;16.42;65.77;101316.47;5052720;28;20427;-71
2023/06/14 05:26:23;;;;;;;11.77;7.20;;;;;;;16.06;67.76;101325.56;5048608;28;20481;-72
2023/06/14 05:28:56;;;;;;;10.67;8.47;;;;;;;16.01;68.70;101327.28;5061134;28;20939;-70
2023/06/14 05:31:25;;;;;;;8.13;7.30;;;;;;;16.16;68.40;101335.09;5039532;28;20406;-71
2023/06/14 05:33:55;;;;;;;9.97;7.00;;;;;;;16.18;68.49;101332.97;5054821;28;20406;-70
2023/06/14 05:36:24;;;;;;;7.90;6.87;;;;;;;16.26;68.27;101319.00;5059484;22;20549;-72
2023/06/14 05:38:57;;;;;;;8.73;6.87;;;;;;;16.39;68.11;101330.59;5029135;28;20906;-71
2023/06/14 05:41:27;;;;;;;9.33;6.77;;;;;;;16.38;67.85;101333.56;5038705;28;20403;-74
2023/06/14 05:43:59;;;;;;;9.43;7.83;;;;;;;16.34;68.08;101338.66;5035588;28;20476;-72
2023/06/14 05:46:28;;;;;;;8.53;7.20;;;;;;;16.55;67.73;101334.59;5050357;28;20435;-73
2023/06/14 05:48:58;;;;;;;8.17;7.10;;;;;;;16.59;67.45;101330.38;5032039;28;20460;-72
2023/06/14 05:51:27;;;;;;;10.80;8.00;;;;;;;16.74;66.78;101338.16;5039651;28;20472;-74
2023/06/14 05:53:56;;;;;;;8.20;7.37;;;;;;;16.67;67.40;101338.25;5031828;28;20429;-73
2023/06/14 05:56:26;;;;;;;8.40;7.60;;;;;;;16.74;66.95;101343.63;5034148;28;20551;-72
2023/06/14 05:58:56;;;;;;;7.13;6.47;;;;;;;16.48;68.19;101350.22;5036401;28;20469;-72
2023/06/14 06:01:26;;;;;;;9.63;8.07;;;;;;;16.50;68.07;101354.41;5039435;28;20494;-72
2023/06/14 06:03:55;;;;;;;9.90;7.50;;;;;;;16.27;68.99;101364.34;5035676;28;20512;-71
2023/06/14 06:06:25;;;;;;;10.80;7.13;;;;;;;16.14;69.53;101348.97;5030730;28;20445;-73
2023/06/14 06:08:54;;;;;;;11.60;7.27;;;;;;;16.08;70.02;101349.88;5034373;28;20434;-70
2023/06/14 06:11:23;;;;;;;8.50;5.90;;;;;;;16.27;68.96;101357.00;5036578;28;20975;-73
2023/06/14 06:13:52;;;;;;;10.37;7.17;;;;;;;16.27;69.31;101353.44;5031766;28;20399;-72
2023/06/14 06:16:23;;;;;;;9.03;6.40;;;;;;;16.28;69.33;101347.75;5031073;28;20434;-72
2023/06/14 06:18:52;;;;;;;10.80;7.50;;;;;;;16.41;69.04;101357.69;5034473;28;20399;-73
2023/06/14 06:21:21;;;;;;;8.30;6.53;;;;;;;16.36;68.88;101341.97;5033039;28;20429;-72
2023/06/14 06:23:50;;;;;;;14.90;8.30;;;;;;;16.35;69.18;101350.41;5036461;28;20407;-72
2023/06/14 06:26:20;;;;;;;6.57;5.97;;;;;;;16.27;69.21;101351.53;5038541;28;20448;-72
2023/06/14 06:28:49;;;;;;;7.50;6.80;;;;;;;16.22;70.15;101350.56;5034911;28;20454;-72
2023/06/14 06:31:18;;;;;;;9.37;6.50;;;;;;;16.36;69.98;101357.53;5033453;28;20417;-74
2023/06/14 06:33:49;;;;;;;6.73;6.03;;;;;;;16.51;69.40;101347.03;5027195;28;20724;-73
2023/06/14 06:36:18;;;;;;;8.43;6.73;;;;;;;16.56;69.28;101340.88;5033369;28;20989;-72
2023/06/14 06:38:47;;;;;;;7.73;6.70;;;;;;;16.67;68.92;101338.25;5034633;28;20442;-72
2023/06/14 06:41:16;;;;;;;7.63;6.87;;;;;;;16.75;68.56;101346.09;5029071;28;20413;-71
2023/06/14 06:43:45;;;;;;;9.30;6.23;;;;;;;16.76;68.84;101342.31;5031222;28;20432;-73
2023/06/14 06:46:18;;;;;;;8.00;7.00;;;;;;;16.68;69.21;101350.84;5027916;28;20523;-72
2023/06/14 06:48:48;;;;;;;8.70;7.90;;;;;;;17.05;67.70;101334.31;5035872;28;20992;-73
2023/06/14 06:51:17;;;;;;;8.03;6.27;;;;;;;17.38;66.19;101340.91;5031404;28;20469;-72
2023/06/14 06:53:54;;;;;;;9.10;7.50;;;;;;;17.39;65.87;101347.22;5040026;28;20440;-73
2023/06/14 06:56:24;;;;;;;7.10;6.33;;;;;;;17.49;65.33;101352.09;5033648;28;20422;-74
2023/06/14 06:58:53;;;;;;;8.30;6.40;;;;;;;17.64;64.84;101356.06;5033425;28;20444;-74
2023/06/14 07:01:24;;;;;;;7.63;6.50;;;;;;;17.37;65.47;101346.63;5032975;28;20420;-70
2023/06/14 07:03:55;;;;;;;7.90;6.80;;;;;;;17.89;64.15;101352.25;5031029;28;20411;-71
2023/06/14 07:06:27;;;;;;;8.37;6.70;;;;;;;18.16;63.13;101358.88;5032175;28;20948;-71
2023/06/14 07:09:01;;;;;;;10.20;6.13;;;;;;;18.39;62.21;101363.50;5024268;28;20399;-72
2023/06/14 07:11:30;;;;;;;7.93;6.60;;;;;;;18.35;62.20;101373.28;5034594;28;20513;-72
2023/06/14 07:13:59;;;;;;;8.53;7.70;;;;;;;18.06;62.78;101370.44;5033160;28;20436;-74
2023/06/14 07:16:29;;;;;;;8.73;6.20;;;;;;;18.06;62.96;101375.94;5027372;28;20434;-73
2023/06/14 07:19:02;;;;;;;11.80;7.33;;;;;;;18.04;62.78;101380.84;5034566;28;20435;-71
2023/06/14 07:21:31;;;;;;;12.07;7.30;;;;;;;18.12;62.78;101382.34;5029579;28;20424;-74
2023/06/14 07:24:01;;;;;;;7.23;6.53;;;;;;;18.01;62.89;101383.22;5033105;28;20430;-72
2023/06/14 07:26:30;;;;;;;9.90;6.60;;;;;;;18.10;62.55;101387.25;5031531;28;20509;-73
2023/06/14 07:29:03;;;;;;;10.80;7.13;;;;;;;18.36;62.06;101385.88;5033245;28;20410;-72
2023/06/14 07:31:32;;;;;;;7.67;6.20;;;;;;;18.53;61.64;101387.69;5037085;28;20468;-72
2023/06/14 07:34:03;;;;;;;9.40;6.40;;;;;;;18.66;60.75;101384.66;5035201;28;20682;-71
2023/06/14 07:36:32;;;;;;;6.80;6.10;;;;;;;18.87;59.84;101385.06;5033966;28;20472;-73
2023/06/14 07:39:03;;;;;;;8.23;6.83;;;;;;;18.82;59.44;101384.97;5035437;28;20443;-72
2023/06/14 07:41:32;;;;;;;9.67;5.90;;;;;;;18.99;59.38;101378.44;5033542;28;20408;-70
2023/06/14 07:44:02;;;;;;;9.27;6.47;;;;;;;19.45;57.83;101377.38;5032076;28;20415;-73
2023/06/14 07:46:31;;;;;;;8.87;6.20;;;;;;;19.74;57.23;101382.75;5035032;28;20483;-72
2023/06/14 07:49:03;;;;;;;10.20;7.07;;;;;;;20.34;55.45;101383.66;5025975;28;20444;-73
2023/06/14 07:51:32;;;;;;;9.70;6.17;;;;;;;20.57;54.21;101390.00;5034965;28;20475;-70
2023/06/14 07:54:02;;;;;;;8.00;5.97;;;;;;;20.56;54.45;101393.84;5025196;28;20615;-71
2023/06/14 07:56:31;;;;;;;7.13;6.13;;;;;;;20.40;54.41;101390.06;5037632;28;20441;-70
2023/06/14 07:59:01;;;;;;;11.07;6.50;;;;;;;20.44;54.21;101382.94;5032189;28;20424;-71
2023/06/14 08:01:30;;;;;;;10.17;6.90;;;;;;;20.34;54.77;101386.41;5027599;28;20431;-73
2023/06/14 08:03:59;;;;;;;7.97;6.83;;;;;;;20.22;54.53;101374.69;5029371;28;20874;-71
2023/06/14 08:06:30;;;;;;;7.33;6.40;;;;;;;20.49;53.83;101380.25;5034204;28;20781;-72
2023/06/14 08:08:59;;;;;;;8.27;6.23;;;;;;;20.39;54.03;101375.47;5030076;28;20402;-74
2023/06/14 08:11:29;;;;;;;8.93;5.63;;;;;;;20.83;52.97;101369.94;5032716;28;20478;-72
2023/06/14 08:13:58;;;;;;;10.13;6.10;;;;;;;20.90;52.90;101365.06;5037393;28;20953;-72
2023/06/14 08:16:27;;;;;;;7.83;6.47;;;;;;;20.67;53.75;101373.63;5031745;28;20476;-72
2023/06/14 08:18:57;;;;;;;6.17;5.47;;;;;;;20.88;52.02;101366.41;5032252;28;20493;-75
2023/06/14 08:21:27;;;;;;;6.67;6.00;;;;;;;20.79;52.61;101368.78;5028855;28;20520;-72
2023/06/14 08:23:59;;;;;;;6.97;6.07;;;;;;;20.85;51.69;101367.78;5035192;28;20459;-72
2023/06/14 08:26:29;;;;;;;6.37;5.73;;;;;;;21.04;51.83;101366.31;5028308;28;20431;-70
2023/06/14 08:28:59;;;;;;;6.83;6.13;;;;;;;20.94;51.39;101366.22;5030915;28;20429;-74
2023/06/14 08:31:28;;;;;;;7.17;5.67;;;;;;;21.07;50.75;101368.53;5031410;28;20468;-72
2023/06/14 08:33:57;;;;;;;6.47;5.87;;;;;;;21.06;52.09;101366.03;5035755;28;20550;-72
2023/06/14 08:36:27;;;;;;;11.03;6.67;;;;;;;21.56;48.98;101360.19;5028006;28;20468;-73
2023/06/14 08:38:57;;;;;;;5.83;5.30;;;;;;;21.50;49.67;101364.81;5047033;28;20437;-74
2023/06/14 08:41:27;;;;;;;6.47;5.23;;;;;;;21.34;49.49;101373.22;5037645;28;20432;-75
2023/06/14 08:43:56;;;;;;;7.50;5.40;;;;;;;21.81;48.77;101368.63;5037757;28;20515;-71
2023/06/14 08:46:27;;;;;;;7.83;7.03;;;;;;;21.64;48.45;101370.69;5032188;28;20451;-71
2023/06/14 08:48:58;;;;;;;10.27;5.73;;;;;;;21.62;48.43;101356.38;5030397;28;20413;-72
2023/06/14 08:51:33;;;;;;;6.63;5.40;;;;;;;21.60;48.67;101364.06;5030264;28;20437;-72
2023/06/14 08:54:06;;;;;;;6.23;5.60;;;;;;;21.79;47.20;101361.72;5043026;28;20538;-73
2023/06/14 08:56:38;;;;;;;6.50;5.60;;;;;;;21.80;47.13;101364.22;5047693;28;20480;-72
2023/06/14 08:59:09;;;;;;;5.87;4.80;;;;;;;21.36;47.50;101351.75;5047171;28;20422;-75
2023/06/14 09:01:39;;;;;;;12.70;5.53;;;;;;;21.18;47.71;101359.31;5042114;28;20424;-73
2023/06/14 09:04:14;;;;;;;6.67;4.50;;;;;;;20.80;49.44;101365.78;5047359;28;20394;-75
2023/06/14 09:06:44;;;;;;;8.60;4.30;;;;;;;21.21;47.95;101357.97;5044463;28;20503;-74
2023/06/14 09:09:15;;;;;;;6.70;5.47;;;;;;;21.47;48.03;101364.53;5036574;28;20539;-72
2023/06/14 09:11:44;;;;;;;8.10;4.80;;;;;;;21.76;47.67;101368.59;5043426;28;20434;-71
2023/06/14 09:14:13;;;;;;;7.43;5.27;;;;;;;21.57;47.98;101361.84;5040824;28;20435;-73
2023/06/14 09:16:43;;;;;;;6.13;4.83;;;;;;;21.47;48.50;101361.78;5038820;28;20825;-71
2023/06/14 09:19:22;;;;;;;6.33;5.13;;;;;;;21.68;48.31;101377.38;5036911;28;20431;-70
2023/06/14 09:21:52;;;;;;;6.93;5.10;;;;;;;22.16;46.97;101372.75;5041349;28;20810;-74
2023/06/14 09:24:26;;;;;;;7.83;5.57;;;;;;;22.40;46.61;101371.22;5038006;28;20391;-72
2023/06/14 09:26:57;;;;;;;9.90;5.57;;;;;;;22.47;46.74;101372.59;5042069;28;20509;-73
2023/06/14 09:29:27;;;;;;;6.60;5.90;;;;;;;22.21;46.43;101368.09;5029410;28;20506;-74
2023/06/14 09:31:57;;;;;;;6.60;6.00;;;;;;;21.68;48.25;101377.38;5031823;28;20537;-74
2023/06/14 09:34:27;;;;;;;5.63;5.13;;;;;;;21.99;47.07;101383.94;5022367;28;20416;-71
2023/06/14 09:36:56;;;;;;;7.77;5.40;;;;;;;22.30;46.66;101380.25;5034679;28;20491;-71
2023/06/14 09:39:27;;;;;;;7.10;5.43;;;;;;;22.62;45.64;101377.34;5030655;28;20443;-74
2023/06/14 09:41:56;;;;;;;6.60;6.00;;;;;;;22.44;46.05;101372.31;5035496;28;20490;-72
2023/06/14 09:44:29;;;;;;;7.20;5.77;;;;;;;22.37;45.67;101377.25;5029467;28;20950;-73
2023/06/14 09:46:59;;;;;;;7.83;5.00;;;;;;;22.48;45.10;101378.97;5034870;28;20459;-72
2023/06/14 09:49:28;;;;;;;5.70;4.83;;;;;;;22.40;45.50;101368.44;5028786;28;20880;-73
2023/06/14 09:52:05;;;;;;;5.73;5.10;;;;;;;22.30;45.04;101376.66;5034608;28;20467;-74
2023/06/14 09:54:42;;;;;;;5.03;4.63;;;;;;;22.13;45.32;101378.78;5034265;28;20406;-72
2023/06/14 09:57:13;;;;;;;14.63;5.20;;;;;;;22.02;46.24;101378.75;5040412;28;20477;-74
2023/06/14 09:59:45;;;;;;;9.63;6.20;;;;;;;22.49;45.20;101377.88;5030190;28;20424;-71
2023/06/14 10:02:23;;;;;;;7.23;4.70;;;;;;;22.86;44.46;101372.22;5028315;28;20819;-75
2023/06/14 10:05:00;;;;;;;8.23;5.53;;;;;;;22.80;44.69;101379.63;5036050;28;20403;-73
2023/06/14 10:07:33;;;;;;;6.03;5.50;;;;;;;22.20;45.76;101373.88;5037433;28;20546;-75
2023/06/14 10:10:05;;;;;;;7.30;5.50;;;;;;;22.04;46.48;101384.78;5035259;28;20456;-75
2023/06/14 10:12:37;;;;;;;5.63;4.90;;;;;;;21.87;46.92;101377.78;5029407;28;20492;-75
2023/06/14 10:15:10;;;;;;;6.40;5.80;;;;;;;22.03;46.50;101372.09;5039899;28;20451;-73
2023/06/14 10:17:48;;;;;;;6.73;5.87;;;;;;;22.08;46.26;101372.13;5035497;28;20478;-73
2023/06/14 10:20:27;;;;;;;6.73;4.73;;;;;;;21.97;46.31;101375.94;5033352;28;20456;-75
2023/06/14 10:23:03;;;;;;;6.60;5.80;;;;;;;22.22;45.83;101371.69;5025691;28;20932;-76
2023/06/14 10:25:35;;;;;;;6.83;5.23;;;;;;;22.22;46.03;101364.22;5028049;28;20419;-76
2023/06/14 10:28:19;;;;;;;7.30;5.73;;;;;;;22.45;45.59;101371.22;5027818;28;20403;-69
2023/06/14 10:31:07;;;;;;;7.13;5.70;;;;;;;22.39;45.00;101369.53;5029714;28;20438;-73
2023/06/14 10:33:40;;;;;;;6.73;6.10;;;;;;;22.49;44.56;101370.41;5030954;28;20424;-72
2023/06/14 10:36:34;;;;;;;7.40;6.20;;;;;;;22.64;44.66;101364.13;5031138;28;20554;-70
2023/06/14 10:39:08;;;;;;;10.10;5.47;;;;;;;22.84;44.34;101358.72;5026978;28;20458;-71
2023/06/14 10:41:40;;;;;;;8.33;5.80;;;;;;;23.17;43.60;101357.38;5025898;28;20424;-74
2023/06/14 10:44:41;;;;;;;8.00;6.17;;;;;;;22.83;44.56;101345.16;5034756;28;20431;-70
2023/06/14 10:47:24;;;;;;;10.60;6.00;;;;;;;23.07;43.70;101349.06;5035486;28;20422;-75
2023/06/14 10:49:57;;;;;;;8.13;5.83;;;;;;;23.45;43.04;101347.75;5023035;28;20607;-73
2023/06/14 10:52:29;;;;;;;10.40;5.97;;;;;;;23.66;42.99;101345.78;5033329;28;20489;-70
2023/06/14 10:55:09;;;;;;;10.03;6.00;;;;;;;23.34;42.95;101352.41;5027430;28;20398;-71
2023/06/14 10:57:40;;;;;;;8.53;6.23;;;;;;;23.22;43.42;101337.22;5031359;28;20954;-74
2023/06/14 11:00:16;;;;;;;6.70;6.00;;;;;;;23.41;43.42;101335.56;5027165;28;20444;-73
2023/06/14 11:03:13;;;;;;;7.10;5.87;;;;;;;23.52;41.70;101328.97;5031476;28;20848;-72
2023/06/14 11:05:52;;;;;;;12.30;6.07;;;;;;;23.47;41.87;101326.22;5032889;28;20886;-72
2023/06/14 11:08:46;;;;;;;7.90;5.33;;;;;;;23.19;41.88;101335.03;5043321;28;20399;-75
2023/06/14 11:11:16;;;;;;;5.97;5.33;;;;;;;22.58;42.41;101334.88;5025877;28;20440;-72
2023/06/14 11:13:47;;;;;;;7.40;4.93;;;;;;;22.80;41.73;101338.25;5031654;28;20463;-71
2023/06/14 11:16:19;;;;;;;7.63;5.37;;;;;;;23.15;41.69;101336.66;5028608;28;20463;-75
2023/06/14 11:18:50;;;;;;;6.17;5.57;;;;;;;23.46;41.73;101326.47;5029543;28;20406;-74
2023/06/14 11:21:19;;;;;;;11.93;5.30;;;;;;;23.56;41.40;101327.31;5029341;28;20443;-72
2023/06/14 11:23:54;;;;;;;7.27;5.23;;;;;;;23.79;41.14;101326.69;5028049;28;20419;-72
2023/06/14 11:26:27;;;;;;;7.83;5.40;;;;;;;24.11;39.51;101315.25;5034904;28;20486;-71
2023/06/14 11:29:00;;;;;;;6.97;5.73;;;;;;;24.44;39.34;101315.72;5032108;28;20428;-70
2023/06/14 11:31:30;;;;;;;8.63;5.03;;;;;;;24.14;39.38;101311.94;5032371;28;20441;-73
2023/06/14 11:34:00;;;;;;;6.80;5.00;;;;;;;24.11;39.17;101311.66;5035424;28;20465;-75
2023/06/14 11:36:31;;;;;;;8.30;4.90;;;;;;;24.73;37.32;101302.84;5337076;23;20542;-70
2023/06/14 11:39:01;;;;;;;6.73;5.37;;;;;;;25.01;37.17;101304.03;5033457;28;20433;-69
2023/06/14 11:41:40;;;;;;;6.87;4.93;;;;;;;25.76;36.35;101301.72;5036017;28;20399;-68
2023/06/14 11:44:12;;;;;;;8.13;4.97;;;;;;;26.00;35.39;101299.78;5027621;28;20552;-68